sensor_id;sensor_type;location;lat;lon;timestamp;pressure;altitude;pressure_sealevel;temperature;humidity
55604;BME280;41468;48.838;9.330;2023-08-07T00:02:01;98130.13;;;13.12;95.65
55604;BME280;41468;48.838;9.330;2023-08-07T00:04:28;98126.97;;;13.10;93.94
55604;BME280;41468;48.838;9.330;2023-08-07T00:17:37;98134.84;;;13.15;92.95
55604;BME280;41468;48.838;9.330;2023-08-07T00:20:05;98138.72;;;13.07;92.74
55604;BME280;41468;48.838;9.330;2023-08-07T00:22:32;98139.53;;;13.11;92.80
55604;BME280;41468;48.838;9.330;2023-08-07T00:24:58;98142.25;;;13.08;92.62
55604;BME280;41468;48.838;9.330;2023-08-07T00:27:25;98141.88;;;13.09;92.74
55604;BME280;41468;48.838;9.330;2023-08-07T00:29:52;98148.13;;;13.06;92.91
55604;BME280;41468;48.838;9.330;2023-08-07T00:32:19;98153.25;;;13.11;92.83
55604;BME280;41468;48.838;9.330;2023-08-07T00:34:46;98148.13;;;13.13;92.86
55604;BME280;41468;48.838;9.330;2023-08-07T00:37:12;98152.06;;;13.12;91.45
55604;BME280;41468;48.838;9.330;2023-08-07T00:39:39;98145.03;;;13.11;91.75
55604;BME280;41468;48.838;9.330;2023-08-07T00:42:06;98150.50;;;13.18;91.36
55604;BME280;41468;48.838;9.330;2023-08-07T00:44:34;98145.38;;;13.13;91.89
55604;BME280;41468;48.838;9.330;2023-08-07T00:47:01;98149.72;;;13.14;91.09
55604;BME280;41468;48.838;9.330;2023-08-07T00:49:28;98152.06;;;13.12;90.54
55604;BME280;41468;48.838;9.330;2023-08-07T00:51:55;98147.72;;;13.08;90.57
55604;BME280;41468;48.838;9.330;2023-08-07T01:04:56;98163.00;;;13.01;89.14
55604;BME280;41468;48.838;9.330;2023-08-07T01:07:23;98178.66;;;13.01;89.21
55604;BME280;41468;48.838;9.330;2023-08-07T01:09:50;98152.81;;;13.02;87.88
55604;BME280;41468;48.838;9.330;2023-08-07T01:12:25;98154.41;;;13.03;87.66
55604;BME280;41468;48.838;9.330;2023-08-07T01:17:39;98162.25;;;13.15;87.72
55604;BME280;41468;48.838;9.330;2023-08-07T01:20:06;98159.09;;;13.06;86.82
55604;BME280;41468;48.838;9.330;2023-08-07T01:22:33;98159.09;;;13.06;86.59
55604;BME280;41468;48.838;9.330;2023-08-07T01:25:00;98157.13;;;13.10;86.78
55604;BME280;41468;48.838;9.330;2023-08-07T01:27:35;98165.75;;;13.09;86.72
55604;BME280;41468;48.838;9.330;2023-08-07T01:30:33;98158.31;;;13.09;87.01
55604;BME280;41468;48.838;9.330;2023-08-07T01:35:38;98154.00;;;13.15;85.89
55604;BME280;41468;48.838;9.330;2023-08-07T01:38:07;98162.22;;;13.04;85.61
55604;BME280;41468;48.838;9.330;2023-08-07T01:40:35;98159.88;;;13.10;85.56
55604;BME280;41468;48.838;9.330;2023-08-07T01:43:04;98160.25;;;13.05;85.40
55604;BME280;41468;48.838;9.330;2023-08-07T01:45:31;98158.69;;;13.08;84.88
55604;BME280;41468;48.838;9.330;2023-08-07T01:47:59;98159.47;;;13.08;85.42
55604;BME280;41468;48.838;9.330;2023-08-07T01:50:26;98157.50;;;13.01;84.92
55604;BME280;41468;48.838;9.330;2023-08-07T01:52:52;98161.44;;;13.00;83.46
55604;BME280;41468;48.838;9.330;2023-08-07T01:55:20;98157.13;;;13.03;83.93
55604;BME280;41468;48.838;9.330;2023-08-07T01:57:47;98164.56;;;13.02;83.74
55604;BME280;41468;48.838;9.330;2023-08-07T02:00:14;98170.84;;;13.10;83.95
55604;BME280;41468;48.838;9.330;2023-08-07T02:02:41;98161.47;;;13.11;83.50
55604;BME280;41468;48.838;9.330;2023-08-07T02:05:08;98169.69;;;13.11;82.43
55604;BME280;41468;48.838;9.330;2023-08-07T02:07:35;98166.13;;;13.11;82.38
55604;BME280;41468;48.838;9.330;2023-08-07T02:10:01;98173.97;;;13.16;82.61
55604;BME280;41468;48.838;9.330;2023-08-07T02:12:28;98168.09;;;13.07;81.88
55604;BME280;41468;48.838;9.330;2023-08-07T02:14:59;98176.31;;;13.03;82.27
55604;BME280;41468;48.838;9.330;2023-08-07T02:17:29;98178.66;;;13.01;81.92
55604;BME280;41468;48.838;9.330;2023-08-07T02:19:59;98175.50;;;12.99;81.42
55604;BME280;41468;48.838;9.330;2023-08-07T02:22:26;98170.03;;;13.02;82.13
55604;BME280;41468;48.838;9.330;2023-08-07T02:24:53;98173.19;;;13.01;82.99
55604;BME280;41468;48.838;9.330;2023-08-07T02:27:20;98189.63;;;13.08;82.20
55604;BME280;41468;48.838;9.330;2023-08-07T02:29:46;98184.91;;;13.05;81.84
55604;BME280;41468;48.838;9.330;2023-08-07T02:32:13;98173.19;;;13.01;81.17
55604;BME280;41468;48.838;9.330;2023-08-07T02:34:40;98188.03;;;13.00;82.21
55604;BME280;41468;48.838;9.330;2023-08-07T02:37:07;98175.13;;;13.00;83.39
55604;BME280;41468;48.838;9.330;2023-08-07T02:39:33;98182.19;;;12.98;83.73
55604;BME280;41468;48.838;9.330;2023-08-07T02:42:00;98180.97;;;12.92;85.09
55604;BME280;41468;48.838;9.330;2023-08-07T02:44:27;98193.13;;;12.98;84.59
55604;BME280;41468;48.838;9.330;2023-08-07T02:46:54;98188.03;;;13.00;85.10
55604;BME280;41468;48.838;9.330;2023-08-07T02:49:21;98194.28;;;12.93;83.48
55604;BME280;41468;48.838;9.330;2023-08-07T02:51:48;98204.84;;;12.88;82.21
55604;BME280;41468;48.838;9.330;2023-08-07T02:54:15;98189.97;;;12.89;82.91
55604;BME280;41468;48.838;9.330;2023-08-07T02:56:41;98192.69;;;12.89;83.13
55604;BME280;41468;48.838;9.330;2023-08-07T02:59:08;98194.28;;;12.97;82.24
55604;BME280;41468;48.838;9.330;2023-08-07T03:01:35;98200.97;;;12.96;83.29
55604;BME280;41468;48.838;9.330;2023-08-07T03:04:02;98194.66;;;12.92;82.37
55604;BME280;41468;48.838;9.330;2023-08-07T03:06:29;98191.91;;;12.92;81.87
55604;BME280;41468;48.838;9.330;2023-08-07T03:08:56;98192.69;;;12.81;81.97
55604;BME280;41468;48.838;9.330;2023-08-07T03:11:23;98191.91;;;12.85;82.32
55604;BME280;41468;48.838;9.330;2023-08-07T03:13:49;98193.47;;;12.82;81.79
55604;BME280;41468;48.838;9.330;2023-08-07T03:16:16;98202.47;;;12.86;81.22
55604;BME280;41468;48.838;9.330;2023-08-07T03:18:43;98210.69;;;12.82;81.00
55604;BME280;41468;48.838;9.330;2023-08-07T03:21:10;98206.75;;;12.83;81.35
55604;BME280;41468;48.838;9.330;2023-08-07T03:23:37;98201.28;;;12.80;81.26
55604;BME280;41468;48.838;9.330;2023-08-07T03:26:23;98202.84;;;12.77;81.02
55604;BME280;41468;48.838;9.330;2023-08-07T03:28:50;98205.19;;;12.82;81.07
55604;BME280;41468;48.838;9.330;2023-08-07T03:31:17;98205.16;;;12.75;81.30
55604;BME280;41468;48.838;9.330;2023-08-07T03:33:44;98197.38;;;12.85;81.14
55604;BME280;41468;48.838;9.330;2023-08-07T03:36:11;98201.31;;;12.87;80.98
55604;BME280;41468;48.838;9.330;2023-08-07T03:38:38;98204.06;;;12.87;80.64
55604;BME280;41468;48.838;9.330;2023-08-07T03:41:04;98201.28;;;12.80;80.47
55604;BME280;41468;48.838;9.330;2023-08-07T03:43:31;98202.06;;;12.80;81.37
55604;BME280;41468;48.838;9.330;2023-08-07T03:45:58;98212.25;;;12.83;81.56
55604;BME280;41468;48.838;9.330;2023-08-07T03:48:29;98205.63;;;12.85;80.79
55604;BME280;41468;48.838;9.330;2023-08-07T03:51:05;98207.16;;;12.86;80.69
55604;BME280;41468;48.838;9.330;2023-08-07T03:53:35;98204.84;;;12.88;80.18
55604;BME280;41468;48.838;9.330;2023-08-07T03:56:01;98207.16;;;12.86;80.57
55604;BME280;41468;48.838;9.330;2023-08-07T03:58:29;98211.88;;;12.89;80.59
55604;BME280;41468;48.838;9.330;2023-08-07T04:00:56;98213.06;;;12.91;81.35
55604;BME280;41468;48.838;9.330;2023-08-07T04:03:23;98220.13;;;12.96;80.23
55604;BME280;41468;48.838;9.330;2023-08-07T04:05:53;98218.97;;;12.97;80.69
55604;BME280;41468;48.838;9.330;2023-08-07T04:08:21;98222.47;;;12.94;80.04
55604;BME280;41468;48.838;9.330;2023-08-07T04:11:01;98224.03;;;12.95;80.69
55604;BME280;41468;48.838;9.330;2023-08-07T04:13:29;98223.66;;;12.93;81.57
55604;BME280;41468;48.838;9.330;2023-08-07T04:15:57;98216.22;;;12.97;80.44
55604;BME280;41468;48.838;9.330;2023-08-07T04:18:24;98221.69;;;12.97;81.39
55604;BME280;41468;48.838;9.330;2023-08-07T04:20:54;98231.09;;;12.92;81.12
55604;BME280;41468;48.838;9.330;2023-08-07T04:23:22;98235.03;;;12.98;80.85
55604;BME280;41468;48.838;9.330;2023-08-07T04:25:51;98237.34;;;12.96;80.71
55604;BME280;41468;48.838;9.330;2023-08-07T04:28:18;98233.44;;;12.94;81.18
55604;BME280;41468;48.838;9.330;2023-08-07T04:30:49;98245.53;;;12.89;80.99
55604;BME280;41468;48.838;9.330;2023-08-07T04:33:16;98241.28;;;12.99;80.91
55604;BME280;41468;48.838;9.330;2023-08-07T04:35:43;98235.81;;;13.02;80.98
55604;BME280;41468;48.838;9.330;2023-08-07T04:38:10;98246.78;;;13.02;81.07
55604;BME280;41468;48.838;9.330;2023-08-07T04:40:36;98248.00;;;13.09;79.97
55604;BME280;41468;48.838;9.330;2023-08-07T04:43:04;98247.97;;;13.05;80.65
55604;BME280;41468;48.838;9.330;2023-08-07T04:45:31;98247.59;;;13.10;80.16
55604;BME280;41468;48.838;9.330;2023-08-07T04:47:58;98242.09;;;13.03;80.57
55604;BME280;41468;48.838;9.330;2023-08-07T04:50:24;98240.50;;;12.98;80.80
55604;BME280;41468;48.838;9.330;2023-08-07T04:52:51;98244.41;;;12.97;80.18
55604;BME280;41468;48.838;9.330;2023-08-07T04:55:18;98250.69;;;12.98;80.76
55604;BME280;41468;48.838;9.330;2023-08-07T04:57:45;98258.91;;;12.98;81.78
55604;BME280;41468;48.838;9.330;2023-08-07T05:00:13;98257.34;;;13.00;81.23
55604;BME280;41468;48.838;9.330;2023-08-07T05:02:40;98261.28;;;13.03;80.72
55604;BME280;41468;48.838;9.330;2023-08-07T05:05:07;98263.25;;;13.10;80.56
55604;BME280;41468;48.838;9.330;2023-08-07T05:07:35;98258.59;;;13.17;80.10
55604;BME280;41468;48.838;9.330;2023-08-07T05:10:02;98260.94;;;13.15;80.60
55604;BME280;41468;48.838;9.330;2023-08-07T05:12:29;98275.41;;;13.09;81.41
55604;BME280;41468;48.838;9.330;2023-08-07T05:14:56;98270.72;;;13.13;80.74
55604;BME280;41468;48.838;9.330;2023-08-07T05:17:23;98268.75;;;13.13;80.75
55604;BME280;41468;48.838;9.330;2023-08-07T05:19:50;98262.50;;;13.16;81.23
55604;BME280;41468;48.838;9.330;2023-08-07T05:22:16;98275.81;;;13.14;81.41
55604;BME280;41468;48.838;9.330;2023-08-07T05:24:43;98269.97;;;13.19;81.52
55604;BME280;41468;48.838;9.330;2023-08-07T05:27:11;98261.34;;;13.14;81.00
55604;BME280;41468;48.838;9.330;2023-08-07T05:29:38;98264.88;;;13.21;81.22
55604;BME280;41468;48.838;9.330;2023-08-07T05:32:14;98268.06;;;13.31;81.84
55604;BME280;41468;48.838;9.330;2023-08-07T05:34:41;98279.06;;;13.38;81.89
55604;BME280;41468;48.838;9.330;2023-08-07T05:37:08;98281.41;;;13.36;81.54
55604;BME280;41468;48.838;9.330;2023-08-07T05:39:35;98280.63;;;13.39;81.72
55604;BME280;41468;48.838;9.330;2023-08-07T05:42:02;98293.94;;;13.40;81.74
55604;BME280;41468;48.838;9.330;2023-08-07T05:44:29;98292.78;;;13.41;82.49
55604;BME280;41468;48.838;9.330;2023-08-07T05:46:56;98292.03;;;13.48;82.32
55604;BME280;41468;48.838;9.330;2023-08-07T05:49:23;98285.00;;;13.54;83.08
55604;BME280;41468;48.838;9.330;2023-08-07T05:51:52;98291.66;;;13.53;81.35
55604;BME280;41468;48.838;9.330;2023-08-07T05:54:20;98292.81;;;13.59;81.72
55604;BME280;41468;48.838;9.330;2023-08-07T05:56:47;98294.41;;;13.60;80.86
55604;BME280;41468;48.838;9.330;2023-08-07T05:59:14;98295.19;;;13.61;81.41
55604;BME280;41468;48.838;9.330;2023-08-07T06:01:42;98299.50;;;13.58;80.82
55604;BME280;41468;48.838;9.330;2023-08-07T06:04:09;98317.56;;;13.66;80.50
55604;BME280;41468;48.838;9.330;2023-08-07T06:06:36;98320.66;;;13.61;79.21
55604;BME280;41468;48.838;9.330;2023-08-07T06:09:02;98316.41;;;13.67;79.18
55604;BME280;41468;48.838;9.330;2023-08-07T06:11:30;98325.78;;;13.70;80.15
55604;BME280;41468;48.838;9.330;2023-08-07T06:13:57;98330.91;;;13.79;79.47
55604;BME280;41468;48.838;9.330;2023-08-07T06:16:24;98337.59;;;13.88;79.86
55604;BME280;41468;48.838;9.330;2023-08-07T06:18:56;98332.09;;;13.85;78.24
55604;BME280;41468;48.838;9.330;2023-08-07T06:21:23;98334.84;;;13.85;78.24
55604;BME280;41468;48.838;9.330;2023-08-07T06:23:50;98338.38;;;13.82;78.03
55604;BME280;41468;48.838;9.330;2023-08-07T06:26:17;98335.66;;;13.96;77.76
55604;BME280;41468;48.838;9.330;2023-08-07T06:28:44;98335.25;;;14.05;77.79
55604;BME280;41468;48.838;9.330;2023-08-07T06:31:11;98330.97;;;14.00;76.58
55604;BME280;41468;48.838;9.330;2023-08-07T06:33:38;98334.88;;;14.06;78.41
55604;BME280;41468;48.838;9.330;2023-08-07T06:36:06;98333.34;;;14.20;76.96
55604;BME280;41468;48.838;9.330;2023-08-07T06:38:33;98334.13;;;14.31;76.97
55604;BME280;41468;48.838;9.330;2023-08-07T06:41:01;98335.75;;;14.53;76.76
55604;BME280;41468;48.838;9.330;2023-08-07T06:43:28;98328.66;;;14.56;74.67
55604;BME280;41468;48.838;9.330;2023-08-07T06:45:55;98334.16;;;14.70;76.75
55604;BME280;41468;48.838;9.330;2023-08-07T06:48:23;98335.75;;;14.64;74.24
55604;BME280;41468;48.838;9.330;2023-08-07T06:50:50;98335.31;;;14.76;74.54
55604;BME280;41468;48.838;9.330;2023-08-07T06:53:18;98338.84;;;14.73;73.80
55604;BME280;41468;48.838;9.330;2023-08-07T06:55:45;98326.31;;;14.65;73.76
55604;BME280;41468;48.838;9.330;2023-08-07T06:58:12;98333.34;;;14.77;73.14
55604;BME280;41468;48.838;9.330;2023-08-07T07:00:39;98343.16;;;14.89;73.97
55604;BME280;41468;48.838;9.330;2023-08-07T07:03:06;98338.03;;;14.94;73.75
55604;BME280;41468;48.838;9.330;2023-08-07T07:05:34;98334.44;;;15.12;73.48
55604;BME280;41468;48.838;9.330;2023-08-07T07:08:01;98348.22;;;15.15;71.83
55604;BME280;41468;48.838;9.330;2023-08-07T07:10:28;98349.69;;;15.38;70.11
55604;BME280;41468;48.838;9.330;2023-08-07T07:12:55;98341.34;;;15.63;69.34
55604;BME280;41468;48.838;9.330;2023-08-07T07:15:22;98325.16;;;15.83;68.28
55604;BME280;41468;48.838;9.330;2023-08-07T07:17:48;98337.94;;;16.11;66.93
55604;BME280;41468;48.838;9.330;2023-08-07T07:20:15;98347.97;;;16.43;64.53
55604;BME280;41468;48.838;9.330;2023-08-07T07:22:42;98337.09;;;16.70;64.59
55604;BME280;41468;48.838;9.330;2023-08-07T07:25:09;98328.53;;;16.57;62.97
55604;BME280;41468;48.838;9.330;2023-08-07T07:27:36;98331.03;;;16.41;63.17
55604;BME280;41468;48.838;9.330;2023-08-07T07:30:03;98351.59;;;16.25;62.74
55604;BME280;41468;48.838;9.330;2023-08-07T07:32:30;98345.94;;;15.91;63.71
55604;BME280;41468;48.838;9.330;2023-08-07T07:34:57;98362.16;;;15.75;64.46
55604;BME280;41468;48.838;9.330;2023-08-07T07:37:24;98356.69;;;15.57;65.29
55604;BME280;41468;48.838;9.330;2023-08-07T07:39:51;98353.97;;;15.50;65.01
55604;BME280;41468;48.838;9.330;2023-08-07T07:42:18;98354.00;;;15.46;67.02
55604;BME280;41468;48.838;9.330;2023-08-07T07:44:45;98351.63;;;15.44;67.17
55604;BME280;41468;48.838;9.330;2023-08-07T07:47:11;98355.19;;;15.38;66.96
55604;BME280;41468;48.838;9.330;2023-08-07T07:49:44;98360.38;;;15.21;68.29
55604;BME280;41468;48.838;9.330;2023-08-07T07:52:11;98364.31;;;15.17;68.72
55604;BME280;41468;48.838;9.330;2023-08-07T07:54:38;98358.81;;;15.10;69.38
55604;BME280;41468;48.838;9.330;2023-08-07T07:57:05;98361.94;;;15.12;70.00
55604;BME280;41468;48.838;9.330;2023-08-07T07:59:32;98370.19;;;15.12;69.84
55604;BME280;41468;48.838;9.330;2023-08-07T08:01:59;98357.66;;;15.11;69.41
55604;BME280;41468;48.838;9.330;2023-08-07T08:04:25;98373.34;;;15.14;70.34
55604;BME280;41468;48.838;9.330;2023-08-07T08:06:58;98374.94;;;15.08;70.64
55604;BME280;41468;48.838;9.330;2023-08-07T08:09:26;98373.34;;;15.14;70.60
55604;BME280;41468;48.838;9.330;2023-08-07T08:11:53;98385.13;;;15.14;69.16
55604;BME280;41468;48.838;9.330;2023-08-07T08:14:20;98385.94;;;15.08;67.52
55604;BME280;41468;48.838;9.330;2023-08-07T08:16:46;98391.44;;;15.08;67.84
55604;BME280;41468;48.838;9.330;2023-08-07T08:19:13;98393.00;;;15.09;67.63
55604;BME280;41468;48.838;9.330;2023-08-07T08:21:42;98397.69;;;15.12;67.69
55604;BME280;41468;48.838;9.330;2023-08-07T08:24:09;98399.28;;;15.16;66.93
55604;BME280;41468;48.838;9.330;2023-08-07T08:26:36;98401.25;;;15.09;66.50
55604;BME280;41468;48.838;9.330;2023-08-07T08:29:03;98408.72;;;15.01;65.79
55604;BME280;41468;48.838;9.330;2023-08-07T08:31:31;98404.41;;;15.03;66.50
55604;BME280;41468;48.838;9.330;2023-08-07T08:33:58;98398.91;;;15.03;66.93
55604;BME280;41468;48.838;9.330;2023-08-07T08:36:24;98398.91;;;15.03;67.33
55604;BME280;41468;48.838;9.330;2023-08-07T08:38:51;98403.19;;;15.12;67.62
55604;BME280;41468;48.838;9.330;2023-08-07T08:41:19;98396.09;;;15.25;66.70
55604;BME280;41468;48.838;9.330;2023-08-07T08:43:52;98396.47;;;15.31;68.05
55604;BME280;41468;48.838;9.330;2023-08-07T08:46:24;98404.31;;;15.46;67.89
55604;BME280;41468;48.838;9.330;2023-08-07T08:48:56;98413.72;;;15.56;67.36
55604;BME280;41468;48.838;9.330;2023-08-07T08:51:24;98407.41;;;15.59;65.76
55604;BME280;41468;48.838;9.330;2023-08-07T08:53:52;98403.88;;;15.70;66.25
55604;BME280;41468;48.838;9.330;2023-08-07T08:56:20;98393.56;;;15.88;65.13
55604;BME280;41468;48.838;9.330;2023-08-07T08:58:50;98405.56;;;16.19;63.85
55604;BME280;41468;48.838;9.330;2023-08-07T09:01:18;98404.31;;;16.34;63.01
55604;BME280;41468;48.838;9.330;2023-08-07T09:03:45;98409.81;;;16.34;64.91
55604;BME280;41468;48.838;9.330;2023-08-07T09:06:13;98410.63;;;16.31;64.40
55604;BME280;41468;48.838;9.330;2023-08-07T09:08:43;98416.94;;;16.25;62.72
55604;BME280;41468;48.838;9.330;2023-08-07T09:11:13;98416.25;;;16.13;61.30
55604;BME280;41468;48.838;9.330;2023-08-07T09:13:41;98417.00;;;16.14;61.07
55604;BME280;41468;48.838;9.330;2023-08-07T09:16:10;98419.75;;;16.21;60.59
55604;BME280;41468;48.838;9.330;2023-08-07T09:18:38;98421.28;;;16.22;59.59
55604;BME280;41468;48.838;9.330;2023-08-07T09:21:05;98422.09;;;16.23;59.93
55604;BME280;41468;48.838;9.330;2023-08-07T09:23:31;98415.38;;;16.27;61.23
55604;BME280;41468;48.838;9.330;2023-08-07T09:26:02;98422.81;;;16.34;61.61
55604;BME280;41468;48.838;9.330;2023-08-07T09:28:32;98429.50;;;16.37;61.33
55604;BME280;41468;48.838;9.330;2023-08-07T09:30:59;98420.78;;;16.45;60.45
55604;BME280;41468;48.838;9.330;2023-08-07T09:33:27;98419.50;;;16.57;61.21
55604;BME280;41468;48.838;9.330;2023-08-07T09:35:58;98430.81;;;16.70;59.57
55604;BME280;41468;48.838;9.330;2023-08-07T09:38:31;98426.44;;;16.76;59.37
55604;BME280;41468;48.838;9.330;2023-08-07T09:41:00;98433.53;;;16.81;60.12
55604;BME280;41468;48.838;9.330;2023-08-07T09:43:28;98438.22;;;16.87;60.91
55604;BME280;41468;48.838;9.330;2023-08-07T09:46:05;98430.78;;;16.81;58.60
55604;BME280;41468;48.838;9.330;2023-08-07T09:48:39;98436.25;;;16.88;58.53
55604;BME280;41468;48.838;9.330;2023-08-07T09:51:06;98450.38;;;16.93;57.93
55604;BME280;41468;48.838;9.330;2023-08-07T09:53:33;98446.66;;;17.11;58.08
55604;BME280;41468;48.838;9.330;2023-08-07T09:56:06;98440.00;;;17.08;57.84
55604;BME280;41468;48.838;9.330;2023-08-07T09:58:33;98440.09;;;16.97;58.73
55604;BME280;41468;48.838;9.330;2023-08-07T10:01:05;98443.22;;;16.99;58.68
55604;BME280;41468;48.838;9.330;2023-08-07T10:03:34;98449.28;;;17.29;56.90
55604;BME280;41468;48.838;9.330;2023-08-07T10:06:01;98450.22;;;17.53;55.42
55604;BME280;41468;48.838;9.330;2023-08-07T10:08:28;98450.31;;;17.80;55.53
55604;BME280;41468;48.838;9.330;2023-08-07T10:10:56;98453.09;;;17.76;55.68
55604;BME280;41468;48.838;9.330;2023-08-07T10:13:25;98445.78;;;17.59;55.40
55604;BME280;41468;48.838;9.330;2023-08-07T10:16:05;98456.81;;;17.62;56.04
55604;BME280;41468;48.838;9.330;2023-08-07T10:18:33;98450.41;;;17.69;56.67
55604;BME280;41468;48.838;9.330;2023-08-07T10:21:01;98458.44;;;17.56;56.96
55604;BME280;41468;48.838;9.330;2023-08-07T10:23:29;98456.13;;;17.51;55.70
55604;BME280;41468;48.838;9.330;2023-08-07T10:25:56;98452.47;;;17.61;55.37
55604;BME280;41468;48.838;9.330;2023-08-07T10:28:24;98444.25;;;17.54;53.31
55604;BME280;41468;48.838;9.330;2023-08-07T10:30:56;98450.81;;;17.67;53.29
55604;BME280;41468;48.838;9.330;2023-08-07T10:33:24;98436.94;;;18.09;52.68
55604;BME280;41468;48.838;9.330;2023-08-07T10:35:52;98451.88;;;18.42;52.35
55604;BME280;41468;48.838;9.330;2023-08-07T10:38:23;98451.88;;;18.42;51.87
55604;BME280;41468;48.838;9.330;2023-08-07T10:41:20;98446.63;;;18.24;53.88
55604;BME280;41468;48.838;9.330;2023-08-07T10:43:46;98453.91;;;18.11;53.31
55604;BME280;41468;48.838;9.330;2023-08-07T10:46:16;98446.47;;;18.35;53.99
55604;BME280;41468;48.838;9.330;2023-08-07T10:48:55;98451.25;;;18.31;53.80
55604;BME280;41468;48.838;9.330;2023-08-07T10:51:29;98450.72;;;18.13;54.06
55604;BME280;41468;48.838;9.330;2023-08-07T10:53:59;98443.53;;;17.88;53.92
55604;BME280;41468;48.838;9.330;2023-08-07T10:56:34;98454.72;;;17.74;53.42
55604;BME280;41468;48.838;9.330;2023-08-07T10:59:09;98457.63;;;17.59;55.06
55604;BME280;41468;48.838;9.330;2023-08-07T11:04:10;98454.28;;;17.41;55.43
55604;BME280;41468;48.838;9.330;2023-08-07T11:06:38;98461.41;;;17.35;56.54
55604;BME280;41468;48.838;9.330;2023-08-07T11:09:07;98460.34;;;17.25;57.53
55604;BME280;41468;48.838;9.330;2023-08-07T11:11:38;98472.66;;;17.13;56.73
55604;BME280;41468;48.838;9.330;2023-08-07T11:14:18;98474.78;;;16.95;55.42
55604;BME280;41468;48.838;9.330;2023-08-07T11:16:46;98461.41;;;16.93;54.36
55604;BME280;41468;48.838;9.330;2023-08-07T11:19:15;98467.81;;;16.80;56.27
55604;BME280;41468;48.838;9.330;2023-08-07T11:21:42;98468.22;;;16.78;56.05
55604;BME280;41468;48.838;9.330;2023-08-07T11:24:13;98464.69;;;16.70;56.28
55604;BME280;41468;48.838;9.330;2023-08-07T11:26:42;98459.59;;;16.65;56.01
55604;BME280;41468;48.838;9.330;2023-08-07T11:29:09;98472.72;;;16.47;56.86
55604;BME280;41468;48.838;9.330;2023-08-07T11:31:36;98468.75;;;16.55;57.61
55604;BME280;41468;48.838;9.330;2023-08-07T11:34:03;98470.34;;;16.52;55.64
55604;BME280;41468;48.838;9.330;2023-08-07T11:36:30;98467.94;;;16.54;56.57
55604;BME280;41468;48.838;9.330;2023-08-07T11:39:09;98468.72;;;16.59;55.71
55604;BME280;41468;48.838;9.330;2023-08-07T11:41:36;98468.59;;;16.80;56.33
55604;BME280;41468;48.838;9.330;2023-08-07T11:44:03;98466.97;;;16.86;57.52
55604;BME280;41468;48.838;9.330;2023-08-07T11:46:30;98464.50;;;16.99;57.21
55604;BME280;41468;48.838;9.330;2023-08-07T11:48:57;98461.25;;;17.11;56.70
55604;BME280;41468;48.838;9.330;2023-08-07T11:51:24;98460.38;;;17.21;57.13
55604;BME280;41468;48.838;9.330;2023-08-07T11:53:50;98461.56;;;17.20;58.28
55604;BME280;41468;48.838;9.330;2023-08-07T11:56:23;98465.97;;;17.11;58.03
55604;BME280;41468;48.838;9.330;2023-08-07T11:58:50;98464.06;;;17.04;58.18
55604;BME280;41468;48.838;9.330;2023-08-07T12:01:22;98463.47;;;16.78;58.84
55604;BME280;41468;48.838;9.330;2023-08-07T12:06:29;98473.81;;;16.60;59.77
55604;BME280;41468;48.838;9.330;2023-08-07T12:08:57;98490.41;;;16.53;60.25
55604;BME280;41468;48.838;9.330;2023-08-07T12:11:24;98486.03;;;16.59;59.35
55604;BME280;41468;48.838;9.330;2023-08-07T12:14:04;98488.75;;;16.66;60.53
55604;BME280;41468;48.838;9.330;2023-08-07T12:16:35;98496.59;;;16.68;61.32
55604;BME280;41468;48.838;9.330;2023-08-07T12:19:02;98498.56;;;16.71;63.23
55604;BME280;41468;48.838;9.330;2023-08-07T12:21:31;98500.44;;;16.88;66.60
55604;BME280;41468;48.838;9.330;2023-08-07T12:24:00;98500.94;;;16.69;64.19
55604;BME280;41468;48.838;9.330;2023-08-07T12:26:27;98501.03;;;16.58;64.16
55604;BME280;41468;48.838;9.330;2023-08-07T12:28:53;98500.16;;;16.68;63.42
55604;BME280;41468;48.838;9.330;2023-08-07T12:31:21;98501.69;;;16.80;63.56
55604;BME280;41468;48.838;9.330;2023-08-07T12:33:48;98502.78;;;16.93;63.92
55604;BME280;41468;48.838;9.330;2023-08-07T12:36:15;98495.63;;;16.99;62.28
55604;BME280;41468;48.838;9.330;2023-08-07T12:38:44;98505.47;;;17.00;60.77
55604;BME280;41468;48.838;9.330;2023-08-07T12:41:11;98495.19;;;17.05;61.03
55604;BME280;41468;48.838;9.330;2023-08-07T12:43:41;98495.97;;;17.05;62.57
55604;BME280;41468;48.838;9.330;2023-08-07T12:46:08;98499.13;;;17.07;62.10
55604;BME280;41468;48.838;9.330;2023-08-07T12:48:37;98495.53;;;17.10;60.49
55604;BME280;41468;48.838;9.330;2023-08-07T12:51:05;98494.78;;;17.10;60.17
55604;BME280;41468;48.838;9.330;2023-08-07T12:53:32;98493.06;;;17.23;60.87
55604;BME280;41468;48.838;9.330;2023-08-07T12:55:59;98506.31;;;17.42;61.36
55604;BME280;41468;48.838;9.330;2023-08-07T12:58:26;98498.81;;;17.43;61.21
55604;BME280;41468;48.838;9.330;2023-08-07T13:00:56;98505.91;;;17.44;62.48
55604;BME280;41468;48.838;9.330;2023-08-07T13:03:23;98505.19;;;17.33;60.18
55604;BME280;41468;48.838;9.330;2023-08-07T13:05:50;98511.53;;;17.30;60.94
55604;BME280;41468;48.838;9.330;2023-08-07T13:08:17;98506.84;;;17.27;61.26
55604;BME280;41468;48.838;9.330;2023-08-07T13:10:44;98506.88;;;17.23;61.85
55604;BME280;41468;48.838;9.330;2023-08-07T13:13:15;98504.59;;;17.14;62.20
55604;BME280;41468;48.838;9.330;2023-08-07T13:15:41;98513.66;;;17.15;61.56
55604;BME280;41468;48.838;9.330;2023-08-07T13:18:08;98509.28;;;17.17;61.81
55604;BME280;41468;48.838;9.330;2023-08-07T13:20:35;98505.84;;;17.06;62.78
55604;BME280;41468;48.838;9.330;2023-08-07T13:23:02;98509.00;;;17.05;63.78
55604;BME280;41468;48.838;9.330;2023-08-07T13:25:31;98515.72;;;17.00;64.38
55604;BME280;41468;48.838;9.330;2023-08-07T13:27:57;98502.28;;;17.06;65.35
55604;BME280;41468;48.838;9.330;2023-08-07T13:30:24;98510.97;;;17.00;65.11
55604;BME280;41468;48.838;9.330;2023-08-07T13:32:51;98503.13;;;16.99;63.27
55604;BME280;41468;48.838;9.330;2023-08-07T13:35:18;98504.56;;;17.18;64.38
55604;BME280;41468;48.838;9.330;2023-08-07T13:37:44;98502.97;;;17.20;63.65